Main page
METAR-TAF:

METAR-TAF

Airports :

Jammu Airport

Jammu, India

latitude: 32-41-21N, longitude: 74-50-15E, elevation: 314 m

METAR: missing

Time: 03:41 (22:11 UTC)

Forecast

The report was made 12 hours and 41 minutes ago, at 09:30 UTC
Forecast valid from 22 at 18 UTC to 23 at 12 UTC
Wind 2 kt from variable directions
Visibility: 6000 m
Scattered clouds at a height of 2500 ft
Broken clouds at a height of 9000 ft
Temporary
from 23 at 02 UTC to 23 at 04 UTC
Wind 3 kt from the East/Southeast
Visibility: 4000 m
mist
Becoming
from 23 at 04 UTC to 23 at 05 UTC
Wind 3 kt from the Southwest
Visibility: 5000 m
Scattered clouds at a height of 3000 ft
Scattered clouds at a height of 9000 ft
Temporary
from 23 at 07 UTC to 23 at 10 UTC
Wind 2 kt from variable directions
Visibility: 6000 m
Few clouds at a height of 5000 ft
Scattered clouds at a height of 10000 ft

TAF: VIJU 220930Z 2218/2312 VRB02KT 6000 SCT025 BKN090 TEMPO 2302/2304 12003KT 4000 BR BECMG 2304/2305 23003KT 5000 SCT030 SCT090 TEMPO 2307/2310 VRB02KT 6000 FEW050 SCT100

Weather observations and forecasts of more than 4000 airports (METAR and TAF reports).

The available stations are represented by yellow and red dots on the map.

Hover mouse over dot to see the name of the station.

Then click to see weather observations and forecasts.

To change the map : click on the green buttons with a black cross to zoom in, on the green button with a dash to zoom out, or on the green arrows for adjacent maps.


METAR-TAF: